Flight Track Log - Related Links

Times and Time Zones

All times are in EDT time to prevent confusion due to time zone crossing. See the LBQ652 flight status page for this flight to view local times or setup timezone preferences in your user account.

Time Position Orientation Groundspeed Altitude Reporting Facility
EDT Latitude Longitude Course Direction KTS MPH feet Rate Location/Type
Sat 05:02:54 AM 38.7833 -94.8667 91° East 170 196 3,800  Level Kansas City TRACON
Sat 05:04:00 AM 38.7821 -94.7535 North  Level Estimated
Sat 05:11:00 AM 39.2148 -94.5363 115° Southeast  Level FlightAware Approximate
Sat 05:12:00 AM 39.1833 -94.4419 90° East  Level FlightAware Approximate
Sat 05:13:00 AM 39.1543 -94.3462 113° Southeast  Level FlightAware Approximate
Sat 05:14:00 AM 39.1240 -94.2505 110° East  Level FlightAware Approximate
Sat 05:15:00 AM 39.0957 -94.1538 113° Southeast  Level FlightAware Approximate
Sat 05:16:00 AM 39.0795 -94.0540 94° East  Level FlightAware Approximate
Sat 05:17:00 AM 39.0732 -93.9510 94° East  Level FlightAware Approximate
Sat 05:18:00 AM 39.0668 -93.8481 95° East  Level FlightAware Approximate
Sat 05:19:00 AM 39.0603 -93.7452 95° East  Level FlightAware Approximate
Sat 05:20:00 AM 39.0538 -93.6423 95° East  Level FlightAware Approximate
Sat 05:21:00 AM 39.0471 -93.5394 95° East  Level FlightAware Approximate
Sat 05:22:00 AM 39.0403 -93.4365 95° East  Level FlightAware Approximate
Sat 05:23:00 AM 39.0335 -93.3337 95° East  Level FlightAware Approximate
Sat 05:24:00 AM 39.0265 -93.2309 95° East  Level FlightAware Approximate
Sat 05:25:00 AM 39.0195 -93.1281 95° East  Level FlightAware Approximate
Sat 05:26:00 AM 39.0124 -93.0253 95° East  Level FlightAware Approximate
Sat 05:27:00 AM 39.0051 -92.9225 95° East  Level FlightAware Approximate
Sat 05:28:00 AM 38.9928 -92.8211 108° East  Level FlightAware Approximate
Sat 05:29:00 AM 38.9682 -92.7229 108° East  Level FlightAware Approximate
Sat 05:30:00 AM 38.9390 -92.6269 112° Southeast  Level FlightAware Approximate
Sat 05:31:00 AM 38.9094 -92.5311 112° Southeast  Level FlightAware Approximate
Sat 05:32:00 AM 38.8797 -92.4354 112° Southeast  Level FlightAware Approximate
Sat 05:33:00 AM 38.8499 -92.3398 112° Southeast  Level FlightAware Approximate
Sat 05:34:00 AM 38.8201 -92.2443 112° Southeast  Level FlightAware Approximate
Sat 05:35:00 AM 38.7991 -92.1527 95° East  Level FlightAware Approximate
Sat 05:36:00 AM 38.7928 -92.0502 95° East  Level FlightAware Approximate
Sat 05:37:00 AM 38.7864 -91.9477 95° East  Level FlightAware Approximate
Sat 05:38:00 AM 38.7761 -91.8457 100° East  Level FlightAware Approximate
Sat 05:39:00 AM 38.7626 -91.7444 100° East  Level FlightAware Approximate
Sat 05:40:00 AM 38.7500 -91.6430 90° East  Level FlightAware Approximate
Sat 05:41:00 AM 38.7429 -91.5406 96° East  Level FlightAware Approximate
Sat 05:42:00 AM 38.7350 -91.4383 96° East  Level FlightAware Approximate
Sat 05:43:00 AM 38.7272 -91.3360 96° East  Level FlightAware Approximate
Sat 05:44:00 AM 38.7193 -91.2337 96° East  Level FlightAware Approximate
Sat 05:45:00 AM 38.6982 -91.1357 99° East  Level FlightAware Approximate
Sat 05:46:00 AM 38.6855 -91.0343 99° East  Level FlightAware Approximate
Sat 05:47:00 AM 38.6833 -90.9318 90° East  Level FlightAware Approximate
Sat 05:48:00 AM 38.6667 -90.8324 90° East  Level FlightAware Approximate
Sat 05:49:00 AM 38.6667 -90.7297 90° East  Level FlightAware Approximate
Sat 05:50:00 AM 38.6500 -90.6500 108° East  Level FlightAware Approximate
Sat 05:51:00 AM 38.6621 -90.6521 108° East  Level Estimated
Sat 05:52:00 AM 38.6621 -90.6521 108° East  Level Estimated
Sat 05:53:00 AM 38.6621 -90.6521 108° East  Level Estimated
Sat 05:54:00 AM 38.6621 -90.6521 108° East  Level Estimated
Sat 05:55:00 AM 38.6621 -90.6521 108° East  Level Estimated
Sat 05:56:00 AM 38.6621 -90.6521 108° East  Level Estimated
Sat 05:57:00 AM 38.6621 -90.6521 108° East  Level Estimated
Sat 05:58:00 AM 38.6621 -90.6521 108° East  Level Estimated
Sat 05:59:00 AM 38.6621 -90.6521 108° East  Level Estimated
Sat 06:00:00 AM 38.6621 -90.6521 108° East  Level Estimated
Sat 06:01:00 AM 38.6621 -90.6521 108° East  Level Estimated
Sat 06:02:00 AM 38.6621 -90.6521 108° East  Level Estimated
Sat 06:03:00 AM 38.6621 -90.6521 108° East  Level Estimated
Sat 06:04:00 AM 38.6621 -90.6521 108° East  Level Estimated
Sat 06:05:00 AM 38.6621 -90.6521 108° East  Level Estimated

Login

Don't have an account? Register now (free) for customized features, flight alerts, and more!